createdAt,value
2023-01-23T05:42:06.246Z,6.70
2023-01-23T05:44:48.636Z,7.00
2023-01-23T05:47:25.412Z,5.50
2023-01-23T05:49:52.733Z,6.30
2023-01-23T05:52:21.921Z,4.60
2023-01-23T05:54:49.115Z,6.60
2023-01-23T05:57:35.531Z,6.30
2023-01-23T06:00:22.318Z,10.80
2023-01-23T06:03:11.306Z,11.70
2023-01-23T06:05:53.521Z,7.60
2023-01-23T06:08:20.856Z,10.70
2023-01-23T06:10:47.906Z,13.90
2023-01-23T06:13:14.951Z,20.60
2023-01-23T06:15:45.499Z,21.70
2023-01-23T06:18:12.792Z,16.50
2023-01-23T06:20:39.873Z,15.80
2023-01-23T06:23:08.529Z,13.10
2023-01-23T06:25:37.051Z,9.20
2023-01-23T06:28:05.731Z,5.20
2023-01-23T06:30:34.442Z,7.80
2023-01-23T06:33:42.562Z,8.60
2023-01-23T06:36:13.784Z,10.80
2023-01-23T06:38:40.678Z,13.70
2023-01-23T06:41:10.588Z,38.90
2023-01-23T06:43:43.749Z,18.30
2023-01-23T06:46:15.398Z,14.10
2023-01-23T06:48:42.533Z,14.10
2023-01-23T06:51:09.763Z,11.70
2023-01-23T06:53:38.403Z,12.80
2023-01-23T06:56:29.633Z,7.60
2023-01-23T06:58:57.129Z,16.20
2023-01-23T07:01:30.329Z,18.70
2023-01-23T07:04:03.492Z,18.70
2023-01-23T07:06:30.796Z,16.50
2023-01-23T07:08:58.014Z,12.80
2023-01-23T07:14:31.227Z,31.40
2023-01-23T07:16:58.533Z,14.10
2023-01-23T07:19:25.816Z,26.70
2023-01-23T07:21:53.643Z,23.50
2023-01-23T07:24:22.813Z,34.00
2023-01-23T07:26:51.079Z,26.80
2023-01-23T07:29:18.344Z,21.60
2023-01-23T07:31:45.546Z,19.00
2023-01-23T07:34:12.822Z,6.90
2023-01-23T07:36:40.185Z,9.70
2023-01-23T07:39:07.683Z,13.40
2023-01-23T07:41:34.904Z,8.40
2023-01-23T07:44:08.020Z,5.70
2023-01-23T07:46:36.291Z,10.20
2023-01-23T07:49:03.740Z,16.10
2023-01-23T07:51:31.058Z,7.10
2023-01-23T07:53:58.248Z,8.00
2023-01-23T07:56:25.185Z,7.20
2023-01-23T07:58:57.409Z,8.30
2023-01-23T08:01:24.715Z,4.40
2023-01-23T08:03:53.972Z,7.20
2023-01-23T08:06:21.169Z,8.30
2023-01-23T08:08:49.039Z,12.60
2023-01-23T08:11:16.067Z,18.70
2023-01-23T08:13:43.129Z,20.20
2023-01-23T08:16:12.049Z,18.50
2023-01-23T08:18:43.888Z,23.10
2023-01-23T08:21:11.112Z,19.40
2023-01-23T08:23:39.181Z,42.30
2023-01-23T08:26:06.921Z,23.80
2023-01-23T08:28:36.756Z,30.60
2023-01-23T08:31:07.676Z,29.60
2023-01-23T08:33:35.584Z,22.20
2023-01-23T08:36:02.931Z,32.60
2023-01-23T08:38:30.579Z,30.90
2023-01-23T08:41:00.267Z,17.90
2023-01-23T08:43:33.562Z,14.10
2023-01-23T08:46:00.943Z,22.60
2023-01-23T08:48:28.886Z,8.50
2023-01-23T08:51:01.109Z,8.60
2023-01-23T08:53:30.569Z,11.60
2023-01-23T08:56:05.506Z,9.60
2023-01-23T09:01:26.306Z,4.60
2023-01-23T09:03:53.466Z,11.10
2023-01-23T09:06:21.252Z,8.20
2023-01-23T09:08:50.905Z,6.40
2023-01-23T09:11:21.548Z,6.50
2023-01-23T09:13:48.946Z,9.40
2023-01-23T09:16:16.510Z,8.70
2023-01-23T09:18:43.677Z,10.10
2023-01-23T09:21:13.370Z,6.10
2023-01-23T09:23:44.792Z,10.20
2023-01-23T09:26:14.713Z,9.00
2023-01-23T09:28:42.680Z,5.10
2023-01-23T09:31:11.648Z,9.10
2023-01-23T09:33:39.231Z,6.40
2023-01-23T09:36:41.364Z,4.30
2023-01-23T09:39:09.462Z,6.10
2023-01-23T09:41:36.641Z,9.60
2023-01-23T09:44:10.302Z,9.60
2023-01-23T09:47:02.801Z,16.10
2023-01-23T09:49:46.998Z,17.50
2023-01-23T09:52:19.814Z,25.10
2023-01-23T09:55:24.296Z,29.70
2023-01-23T09:57:56.072Z,25.30
2023-01-23T10:00:32.081Z,18.20
2023-01-23T10:03:04.508Z,13.90
2023-01-23T10:06:01.840Z,9.00
2023-01-23T10:08:39.986Z,14.60
2023-01-23T10:11:10.708Z,14.90
2023-01-23T10:13:45.708Z,13.40
2023-01-23T10:16:48.753Z,17.50
2023-01-23T10:19:38.558Z,14.90
2023-01-23T10:22:46.747Z,13.70
2023-01-23T10:25:25.320Z,18.00
2023-01-23T10:27:53.987Z,13.60
2023-01-23T10:30:32.215Z,18.00
2023-01-23T10:33:00.415Z,19.00
2023-01-23T10:35:38.927Z,16.20
2023-01-23T10:38:31.666Z,19.00
2023-01-23T10:41:13.979Z,20.90
2023-01-23T10:43:42.176Z,25.30
2023-01-23T10:46:35.935Z,21.10
2023-01-23T10:49:03.426Z,16.40
2023-01-23T10:51:32.811Z,21.20
2023-01-23T10:54:11.335Z,27.70
2023-01-23T10:56:51.814Z,21.90
2023-01-23T10:59:24.359Z,19.80
2023-01-23T11:02:00.165Z,22.90
2023-01-23T11:04:35.478Z,17.60
2023-01-23T11:07:19.062Z,17.70
2023-01-23T11:09:49.272Z,23.20
2023-01-23T11:12:27.725Z,25.00
2023-01-23T11:15:21.687Z,22.20
2023-01-23T11:17:50.955Z,20.90
2023-01-23T11:20:33.576Z,15.00
2023-01-23T11:23:17.198Z,15.90
2023-01-23T11:25:49.578Z,19.00
2023-01-23T11:28:23.804Z,15.30
2023-01-23T11:31:03.741Z,14.30
2023-01-23T11:33:57.252Z,10.40
2023-01-23T11:36:47.354Z,12.80
2023-01-23T11:39:17.616Z,8.30
2023-01-23T11:41:45.906Z,10.40
2023-01-23T11:44:18.696Z,8.50
2023-01-23T11:46:55.800Z,9.40
2023-01-23T11:49:44.514Z,9.50
2023-01-23T11:52:54.489Z,8.90
2023-01-23T11:56:04.311Z,10.40
2023-01-23T11:59:15.980Z,18.80
2023-01-23T12:02:12.393Z,12.30
2023-01-23T12:05:12.066Z,10.00
2023-01-23T12:07:53.227Z,10.50
2023-01-23T12:10:28.938Z,9.90
2023-01-23T12:13:08.535Z,9.00
2023-01-23T12:16:00.302Z,12.30
2023-01-23T12:19:05.114Z,9.90
2023-01-23T12:21:44.927Z,9.00
2023-01-23T12:24:15.177Z,11.90
2023-01-23T12:27:02.105Z,15.70
2023-01-23T12:29:38.017Z,11.70
2023-01-23T12:32:27.851Z,12.20
2023-01-23T12:35:04.879Z,13.30
2023-01-23T12:37:43.602Z,14.00
2023-01-23T12:40:13.378Z,13.30
2023-01-23T12:43:22.772Z,15.90
2023-01-23T12:45:57.752Z,13.80
2023-01-23T12:48:32.230Z,21.00
2023-01-23T12:51:04.938Z,12.20
2023-01-23T12:53:55.896Z,12.30
2023-01-23T12:56:29.032Z,16.90
2023-01-23T12:59:31.372Z,15.80
2023-01-23T13:02:07.663Z,11.40
2023-01-23T13:04:55.960Z,15.70
2023-01-23T13:07:42.590Z,10.50
2023-01-23T13:11:00.765Z,10.90
2023-01-23T13:13:27.921Z,10.50
2023-01-23T13:16:02.900Z,9.30
2023-01-23T13:18:30.312Z,16.10
2023-01-23T13:21:17.944Z,15.30
2023-01-23T13:23:47.981Z,16.80
2023-01-23T13:26:23.349Z,14.30
2023-01-23T13:29:11.230Z,20.00
2023-01-23T13:31:47.328Z,15.90
2023-01-23T13:34:17.988Z,17.70
2023-01-23T13:39:19.924Z,15.00
2023-01-23T13:42:16.047Z,12.70
2023-01-23T13:45:21.381Z,16.90
2023-01-23T14:21:52.538Z,20.70
2023-01-23T14:24:22.298Z,34.00
2023-01-23T14:26:51.032Z,22.00
2023-01-23T14:29:23.352Z,21.50
2023-01-23T14:31:53.911Z,21.20
2023-01-23T14:37:06.020Z,25.80
2023-01-23T14:39:34.384Z,23.60
2023-01-23T14:42:02.799Z,25.90
2023-01-23T14:44:42.826Z,25.90
2023-01-23T14:47:12.060Z,26.50
2023-01-23T14:49:39.816Z,33.60
2023-01-23T14:52:07.790Z,34.30
2023-01-23T14:54:36.869Z,29.20
2023-01-23T14:57:05.744Z,31.70
2023-01-23T14:59:35.218Z,23.30
2023-01-23T15:02:13.035Z,23.10
2023-01-23T15:04:43.541Z,26.20
2023-01-23T15:15:16.604Z,18.80
2023-01-23T15:17:44.651Z,20.90
2023-01-23T15:23:18.784Z,18.90
2023-01-23T15:25:51.720Z,14.00
2023-01-23T15:28:32.337Z,20.10
2023-01-23T15:30:59.225Z,21.40
2023-01-23T15:33:28.238Z,19.40
2023-01-23T15:36:05.191Z,21.00
2023-01-23T15:38:32.095Z,23.60
2023-01-23T15:40:59.755Z,30.00
2023-01-23T15:43:26.710Z,35.10
